sensor_id;sensor_type;location;lat;lon;timestamp;P1;durP1;ratioP1;P2;durP2;ratioP2
55312;SDS011;46892;45.668;11.756;2024-01-11T00:00:16;40.50;;;25.37;;
55312;SDS011;46892;45.668;11.756;2024-01-11T00:02:44;39.17;;;24.33;;
55312;SDS011;46892;45.668;11.756;2024-01-11T00:05:10;38.27;;;24.47;;
55312;SDS011;46892;45.668;11.756;2024-01-11T00:07:35;39.53;;;24.37;;
55312;SDS011;46892;45.668;11.756;2024-01-11T00:10:02;39.63;;;24.80;;
55312;SDS011;46892;45.668;11.756;2024-01-11T00:12:28;41.93;;;24.57;;
55312;SDS011;46892;45.668;11.756;2024-01-11T00:14:54;43.77;;;26.97;;
55312;SDS011;46892;45.668;11.756;2024-01-11T00:17:20;42.73;;;26.03;;
55312;SDS011;46892;45.668;11.756;2024-01-11T00:19:46;38.13;;;24.10;;
55312;SDS011;46892;45.668;11.756;2024-01-11T00:22:11;38.90;;;25.00;;
55312;SDS011;46892;45.668;11.756;2024-01-11T00:24:37;38.43;;;23.67;;
55312;SDS011;46892;45.668;11.756;2024-01-11T00:27:03;34.50;;;22.93;;
55312;SDS011;46892;45.668;11.756;2024-01-11T00:29:29;35.17;;;22.50;;
55312;SDS011;46892;45.668;11.756;2024-01-11T00:31:54;36.87;;;22.50;;
55312;SDS011;46892;45.668;11.756;2024-01-11T00:34:20;33.60;;;22.17;;
55312;SDS011;46892;45.668;11.756;2024-01-11T00:36:46;34.37;;;20.50;;
55312;SDS011;46892;45.668;11.756;2024-01-11T00:39:13;33.87;;;19.77;;
55312;SDS011;46892;45.668;11.756;2024-01-11T00:41:38;34.03;;;20.63;;
55312;SDS011;46892;45.668;11.756;2024-01-11T00:44:04;38.23;;;22.97;;
55312;SDS011;46892;45.668;11.756;2024-01-11T00:46:30;37.43;;;22.30;;
55312;SDS011;46892;45.668;11.756;2024-01-11T00:48:56;36.07;;;22.07;;
55312;SDS011;46892;45.668;11.756;2024-01-11T00:51:22;33.30;;;21.07;;
55312;SDS011;46892;45.668;11.756;2024-01-11T00:53:47;33.00;;;19.63;;
55312;SDS011;46892;45.668;11.756;2024-01-11T00:56:17;33.70;;;20.30;;
55312;SDS011;46892;45.668;11.756;2024-01-11T00:58:44;34.50;;;20.40;;
55312;SDS011;46892;45.668;11.756;2024-01-11T01:01:10;32.17;;;19.60;;
55312;SDS011;46892;45.668;11.756;2024-01-11T01:03:36;33.90;;;20.33;;
55312;SDS011;46892;45.668;11.756;2024-01-11T01:06:02;33.27;;;20.03;;
55312;SDS011;46892;45.668;11.756;2024-01-11T01:08:28;35.37;;;20.63;;
55312;SDS011;46892;45.668;11.756;2024-01-11T01:10:54;31.63;;;19.63;;
55312;SDS011;46892;45.668;11.756;2024-01-11T01:13:20;30.67;;;19.33;;
55312;SDS011;46892;45.668;11.756;2024-01-11T01:15:46;30.60;;;19.10;;
55312;SDS011;46892;45.668;11.756;2024-01-11T01:18:12;29.77;;;18.60;;
55312;SDS011;46892;45.668;11.756;2024-01-11T01:20:38;30.80;;;18.73;;
55312;SDS011;46892;45.668;11.756;2024-01-11T01:23:03;30.60;;;18.17;;
55312;SDS011;46892;45.668;11.756;2024-01-11T01:25:29;29.07;;;18.43;;
55312;SDS011;46892;45.668;11.756;2024-01-11T01:27:55;30.27;;;18.70;;
55312;SDS011;46892;45.668;11.756;2024-01-11T01:30:22;32.00;;;19.53;;
55312;SDS011;46892;45.668;11.756;2024-01-11T01:32:48;31.90;;;19.07;;
55312;SDS011;46892;45.668;11.756;2024-01-11T01:35:14;32.10;;;18.80;;
55312;SDS011;46892;45.668;11.756;2024-01-11T01:37:40;31.03;;;19.63;;
55312;SDS011;46892;45.668;11.756;2024-01-11T01:40:06;33.10;;;20.63;;
55312;SDS011;46892;45.668;11.756;2024-01-11T01:42:32;33.53;;;20.20;;
55312;SDS011;46892;45.668;11.756;2024-01-11T01:44:58;33.23;;;20.23;;
55312;SDS011;46892;45.668;11.756;2024-01-11T01:47:25;36.40;;;20.00;;
55312;SDS011;46892;45.668;11.756;2024-01-11T01:49:52;33.67;;;20.17;;
55312;SDS011;46892;45.668;11.756;2024-01-11T01:52:18;30.10;;;19.00;;
55312;SDS011;46892;45.668;11.756;2024-01-11T01:54:45;35.17;;;21.07;;
55312;SDS011;46892;45.668;11.756;2024-01-11T01:57:12;31.37;;;19.90;;
55312;SDS011;46892;45.668;11.756;2024-01-11T01:59:39;36.37;;;21.03;;
55312;SDS011;46892;45.668;11.756;2024-01-11T02:02:05;37.50;;;21.80;;
55312;SDS011;46892;45.668;11.756;2024-01-11T02:04:32;31.53;;;19.20;;
55312;SDS011;46892;45.668;11.756;2024-01-11T02:06:58;38.43;;;23.33;;
55312;SDS011;46892;45.668;11.756;2024-01-11T02:09:24;37.30;;;21.43;;
55312;SDS011;46892;45.668;11.756;2024-01-11T02:11:51;36.27;;;21.87;;
55312;SDS011;46892;45.668;11.756;2024-01-11T02:14:19;34.30;;;19.93;;
55312;SDS011;46892;45.668;11.756;2024-01-11T02:16:45;37.50;;;21.20;;
55312;SDS011;46892;45.668;11.756;2024-01-11T02:19:14;32.93;;;19.47;;
55312;SDS011;46892;45.668;11.756;2024-01-11T02:21:43;31.63;;;18.80;;
55312;SDS011;46892;45.668;11.756;2024-01-11T02:24:13;31.90;;;19.03;;
55312;SDS011;46892;45.668;11.756;2024-01-11T02:26:58;29.63;;;18.37;;
55312;SDS011;46892;45.668;11.756;2024-01-11T02:29:25;30.03;;;18.93;;
55312;SDS011;46892;45.668;11.756;2024-01-11T02:31:51;32.23;;;19.10;;
55312;SDS011;46892;45.668;11.756;2024-01-11T02:34:17;32.43;;;18.43;;
55312;SDS011;46892;45.668;11.756;2024-01-11T02:36:44;30.17;;;18.37;;
55312;SDS011;46892;45.668;11.756;2024-01-11T02:39:10;32.67;;;18.17;;
55312;SDS011;46892;45.668;11.756;2024-01-11T02:41:37;30.70;;;17.93;;
55312;SDS011;46892;45.668;11.756;2024-01-11T02:44:03;29.43;;;17.97;;
55312;SDS011;46892;45.668;11.756;2024-01-11T02:46:29;28.70;;;17.37;;
55312;SDS011;46892;45.668;11.756;2024-01-11T02:48:55;26.70;;;16.00;;
55312;SDS011;46892;45.668;11.756;2024-01-11T02:51:21;28.57;;;17.40;;
55312;SDS011;46892;45.668;11.756;2024-01-11T02:53:47;28.77;;;17.30;;
55312;SDS011;46892;45.668;11.756;2024-01-11T02:56:12;29.17;;;17.57;;
55312;SDS011;46892;45.668;11.756;2024-01-11T02:58:38;28.10;;;16.60;;
55312;SDS011;46892;45.668;11.756;2024-01-11T03:01:04;26.50;;;16.57;;
55312;SDS011;46892;45.668;11.756;2024-01-11T03:03:30;29.93;;;15.93;;
55312;SDS011;46892;45.668;11.756;2024-01-11T03:05:55;28.07;;;16.37;;
55312;SDS011;46892;45.668;11.756;2024-01-11T03:08:21;25.50;;;15.87;;
55312;SDS011;46892;45.668;11.756;2024-01-11T03:10:47;25.97;;;15.57;;
55312;SDS011;46892;45.668;11.756;2024-01-11T03:13:13;25.70;;;16.30;;
55312;SDS011;46892;45.668;11.756;2024-01-11T03:15:38;27.03;;;16.57;;
55312;SDS011;46892;45.668;11.756;2024-01-11T03:18:04;25.60;;;16.73;;
55312;SDS011;46892;45.668;11.756;2024-01-11T03:20:30;25.73;;;16.53;;
55312;SDS011;46892;45.668;11.756;2024-01-11T03:22:56;25.13;;;15.70;;
55312;SDS011;46892;45.668;11.756;2024-01-11T03:25:21;26.43;;;15.47;;
55312;SDS011;46892;45.668;11.756;2024-01-11T03:27:47;29.77;;;16.77;;
55312;SDS011;46892;45.668;11.756;2024-01-11T03:30:13;26.63;;;17.13;;
55312;SDS011;46892;45.668;11.756;2024-01-11T03:32:39;26.77;;;15.87;;
55312;SDS011;46892;45.668;11.756;2024-01-11T03:35:08;26.37;;;16.20;;
55312;SDS011;46892;45.668;11.756;2024-01-11T03:37:34;25.87;;;15.37;;
55312;SDS011;46892;45.668;11.756;2024-01-11T03:40:00;23.23;;;15.20;;
55312;SDS011;46892;45.668;11.756;2024-01-11T03:42:28;25.80;;;15.23;;
55312;SDS011;46892;45.668;11.756;2024-01-11T03:44:53;25.70;;;15.33;;
55312;SDS011;46892;45.668;11.756;2024-01-11T03:47:19;24.27;;;14.73;;
55312;SDS011;46892;45.668;11.756;2024-01-11T03:49:45;23.83;;;14.43;;
55312;SDS011;46892;45.668;11.756;2024-01-11T03:52:11;23.00;;;13.97;;
55312;SDS011;46892;45.668;11.756;2024-01-11T03:54:36;24.23;;;13.87;;
55312;SDS011;46892;45.668;11.756;2024-01-11T03:57:02;24.57;;;15.07;;
55312;SDS011;46892;45.668;11.756;2024-01-11T03:59:28;24.40;;;14.90;;
55312;SDS011;46892;45.668;11.756;2024-01-11T04:01:54;23.00;;;14.83;;
55312;SDS011;46892;45.668;11.756;2024-01-11T04:04:21;25.60;;;15.00;;
55312;SDS011;46892;45.668;11.756;2024-01-11T04:06:47;23.70;;;14.67;;
55312;SDS011;46892;45.668;11.756;2024-01-11T04:09:13;22.20;;;14.10;;
55312;SDS011;46892;45.668;11.756;2024-01-11T04:11:39;24.00;;;14.73;;
55312;SDS011;46892;45.668;11.756;2024-01-11T04:14:04;24.40;;;14.33;;
55312;SDS011;46892;45.668;11.756;2024-01-11T04:16:31;23.33;;;14.67;;
55312;SDS011;46892;45.668;11.756;2024-01-11T04:18:57;24.53;;;15.07;;
55312;SDS011;46892;45.668;11.756;2024-01-11T04:21:23;23.97;;;14.90;;
55312;SDS011;46892;45.668;11.756;2024-01-11T04:23:50;27.07;;;14.80;;
55312;SDS011;46892;45.668;11.756;2024-01-11T04:26:16;24.83;;;14.37;;
55312;SDS011;46892;45.668;11.756;2024-01-11T04:28:44;24.10;;;14.07;;
55312;SDS011;46892;45.668;11.756;2024-01-11T04:31:11;28.03;;;16.27;;
55312;SDS011;46892;45.668;11.756;2024-01-11T04:33:40;25.20;;;14.93;;
55312;SDS011;46892;45.668;11.756;2024-01-11T04:36:07;26.23;;;15.17;;
55312;SDS011;46892;45.668;11.756;2024-01-11T04:38:33;27.20;;;15.27;;
55312;SDS011;46892;45.668;11.756;2024-01-11T04:40:59;31.27;;;15.53;;
55312;SDS011;46892;45.668;11.756;2024-01-11T04:43:25;27.20;;;15.67;;
55312;SDS011;46892;45.668;11.756;2024-01-11T04:45:51;26.47;;;16.17;;
55312;SDS011;46892;45.668;11.756;2024-01-11T04:48:17;26.93;;;15.37;;
55312;SDS011;46892;45.668;11.756;2024-01-11T04:50:43;25.27;;;14.33;;
55312;SDS011;46892;45.668;11.756;2024-01-11T04:53:10;23.83;;;14.30;;
55312;SDS011;46892;45.668;11.756;2024-01-11T04:55:36;24.80;;;15.33;;
55312;SDS011;46892;45.668;11.756;2024-01-11T04:58:02;27.80;;;14.83;;
55312;SDS011;46892;45.668;11.756;2024-01-11T05:00:28;22.87;;;14.07;;
55312;SDS011;46892;45.668;11.756;2024-01-11T05:02:54;27.10;;;15.00;;
55312;SDS011;46892;45.668;11.756;2024-01-11T05:05:20;25.57;;;13.70;;
55312;SDS011;46892;45.668;11.756;2024-01-11T05:07:46;24.03;;;14.27;;
55312;SDS011;46892;45.668;11.756;2024-01-11T05:10:12;26.40;;;14.53;;
55312;SDS011;46892;45.668;11.756;2024-01-11T05:12:37;24.83;;;13.80;;
55312;SDS011;46892;45.668;11.756;2024-01-11T05:15:04;23.57;;;12.93;;
55312;SDS011;46892;45.668;11.756;2024-01-11T05:17:33;22.77;;;13.40;;
55312;SDS011;46892;45.668;11.756;2024-01-11T05:19:59;26.33;;;14.53;;
55312;SDS011;46892;45.668;11.756;2024-01-11T05:22:24;23.77;;;13.37;;
55312;SDS011;46892;45.668;11.756;2024-01-11T05:24:50;24.77;;;13.83;;
55312;SDS011;46892;45.668;11.756;2024-01-11T05:27:16;22.10;;;12.73;;
55312;SDS011;46892;45.668;11.756;2024-01-11T05:29:42;24.97;;;14.20;;
55312;SDS011;46892;45.668;11.756;2024-01-11T05:32:07;24.83;;;13.67;;
55312;SDS011;46892;45.668;11.756;2024-01-11T05:34:33;24.83;;;13.13;;
55312;SDS011;46892;45.668;11.756;2024-01-11T05:36:59;22.30;;;12.60;;
55312;SDS011;46892;45.668;11.756;2024-01-11T05:39:24;26.00;;;14.70;;
55312;SDS011;46892;45.668;11.756;2024-01-11T05:41:50;22.90;;;13.10;;
55312;SDS011;46892;45.668;11.756;2024-01-11T05:44:17;21.53;;;13.07;;
55312;SDS011;46892;45.668;11.756;2024-01-11T05:46:42;22.83;;;14.27;;
55312;SDS011;46892;45.668;11.756;2024-01-11T05:49:09;23.33;;;13.93;;
55312;SDS011;46892;45.668;11.756;2024-01-11T05:51:35;24.10;;;14.23;;
55312;SDS011;46892;45.668;11.756;2024-01-11T05:54:00;23.30;;;13.70;;
55312;SDS011;46892;45.668;11.756;2024-01-11T05:56:26;24.33;;;13.80;;
55312;SDS011;46892;45.668;11.756;2024-01-11T05:58:52;24.50;;;12.77;;
55312;SDS011;46892;45.668;11.756;2024-01-11T06:01:17;20.50;;;12.73;;
55312;SDS011;46892;45.668;11.756;2024-01-11T06:03:43;22.83;;;13.27;;
55312;SDS011;46892;45.668;11.756;2024-01-11T06:06:09;22.47;;;13.37;;
55312;SDS011;46892;45.668;11.756;2024-01-11T06:08:35;22.67;;;13.37;;
55312;SDS011;46892;45.668;11.756;2024-01-11T06:11:00;27.07;;;13.77;;
55312;SDS011;46892;45.668;11.756;2024-01-11T06:13:26;23.20;;;14.47;;
55312;SDS011;46892;45.668;11.756;2024-01-11T06:15:52;22.57;;;13.57;;
55312;SDS011;46892;45.668;11.756;2024-01-11T06:18:18;21.97;;;14.20;;
55312;SDS011;46892;45.668;11.756;2024-01-11T06:20:44;26.50;;;15.67;;
55312;SDS011;46892;45.668;11.756;2024-01-11T06:23:10;24.87;;;14.10;;
55312;SDS011;46892;45.668;11.756;2024-01-11T06:25:36;22.40;;;13.63;;
55312;SDS011;46892;45.668;11.756;2024-01-11T06:28:03;29.03;;;14.93;;
55312;SDS011;46892;45.668;11.756;2024-01-11T06:30:31;22.85;;;14.25;;
55312;SDS011;46892;45.668;11.756;2024-01-11T06:32:57;23.83;;;13.23;;
55312;SDS011;46892;45.668;11.756;2024-01-11T06:35:23;21.60;;;12.53;;
55312;SDS011;46892;45.668;11.756;2024-01-11T06:37:49;26.03;;;15.00;;
55312;SDS011;46892;45.668;11.756;2024-01-11T06:40:14;26.57;;;15.53;;
55312;SDS011;46892;45.668;11.756;2024-01-11T06:42:40;27.73;;;16.20;;
55312;SDS011;46892;45.668;11.756;2024-01-11T06:45:06;29.30;;;17.57;;
55312;SDS011;46892;45.668;11.756;2024-01-11T06:47:33;38.30;;;20.77;;
55312;SDS011;46892;45.668;11.756;2024-01-11T06:49:59;29.23;;;17.63;;
55312;SDS011;46892;45.668;11.756;2024-01-11T06:52:24;25.00;;;14.27;;
55312;SDS011;46892;45.668;11.756;2024-01-11T06:54:50;26.70;;;16.97;;
55312;SDS011;46892;45.668;11.756;2024-01-11T06:57:16;36.13;;;20.47;;
55312;SDS011;46892;45.668;11.756;2024-01-11T06:59:42;32.00;;;18.50;;
55312;SDS011;46892;45.668;11.756;2024-01-11T07:02:08;33.47;;;19.20;;
55312;SDS011;46892;45.668;11.756;2024-01-11T07:04:34;28.80;;;17.13;;
55312;SDS011;46892;45.668;11.756;2024-01-11T07:07:00;26.97;;;15.17;;
55312;SDS011;46892;45.668;11.756;2024-01-11T07:09:26;28.47;;;16.33;;
55312;SDS011;46892;45.668;11.756;2024-01-11T07:11:51;28.93;;;15.37;;
55312;SDS011;46892;45.668;11.756;2024-01-11T07:14:17;28.73;;;16.53;;
55312;SDS011;46892;45.668;11.756;2024-01-11T07:16:43;28.43;;;16.10;;
55312;SDS011;46892;45.668;11.756;2024-01-11T07:19:09;35.43;;;17.30;;
55312;SDS011;46892;45.668;11.756;2024-01-11T07:21:35;26.37;;;15.67;;
55312;SDS011;46892;45.668;11.756;2024-01-11T07:24:01;26.33;;;15.23;;
55312;SDS011;46892;45.668;11.756;2024-01-11T07:26:27;23.97;;;15.43;;
55312;SDS011;46892;45.668;11.756;2024-01-11T07:28:53;28.30;;;15.77;;
55312;SDS011;46892;45.668;11.756;2024-01-11T07:31:22;29.80;;;16.53;;
55312;SDS011;46892;45.668;11.756;2024-01-11T07:33:47;32.17;;;17.67;;
55312;SDS011;46892;45.668;11.756;2024-01-11T07:36:13;27.57;;;16.43;;
55312;SDS011;46892;45.668;11.756;2024-01-11T07:38:39;30.80;;;17.57;;
55312;SDS011;46892;45.668;11.756;2024-01-11T07:41:05;30.57;;;17.83;;
55312;SDS011;46892;45.668;11.756;2024-01-11T07:43:31;31.50;;;17.60;;
55312;SDS011;46892;45.668;11.756;2024-01-11T07:46:03;32.33;;;17.67;;
55312;SDS011;46892;45.668;11.756;2024-01-11T07:48:30;30.40;;;16.98;;
55312;SDS011;46892;45.668;11.756;2024-01-11T07:50:57;34.00;;;18.67;;
55312;SDS011;46892;45.668;11.756;2024-01-11T07:53:24;33.40;;;20.13;;
55312;SDS011;46892;45.668;11.756;2024-01-11T07:55:51;34.73;;;20.97;;
55312;SDS011;46892;45.668;11.756;2024-01-11T07:58:18;34.57;;;21.47;;
55312;SDS011;46892;45.668;11.756;2024-01-11T08:00:46;44.80;;;25.93;;
55312;SDS011;46892;45.668;11.756;2024-01-11T08:03:12;44.23;;;24.57;;
55312;SDS011;46892;45.668;11.756;2024-01-11T08:05:38;44.97;;;26.30;;
55312;SDS011;46892;45.668;11.756;2024-01-11T08:08:04;48.33;;;29.33;;
55312;SDS011;46892;45.668;11.756;2024-01-11T08:10:30;51.97;;;30.53;;
55312;SDS011;46892;45.668;11.756;2024-01-11T08:12:56;61.50;;;33.53;;
55312;SDS011;46892;45.668;11.756;2024-01-11T08:15:22;53.27;;;31.50;;
55312;SDS011;46892;45.668;11.756;2024-01-11T08:17:47;51.27;;;32.30;;
55312;SDS011;46892;45.668;11.756;2024-01-11T08:20:13;55.40;;;32.67;;
55312;SDS011;46892;45.668;11.756;2024-01-11T08:22:40;54.90;;;31.70;;
55312;SDS011;46892;45.668;11.756;2024-01-11T08:25:06;45.27;;;30.30;;
55312;SDS011;46892;45.668;11.756;2024-01-11T08:27:34;48.13;;;29.23;;
55312;SDS011;46892;45.668;11.756;2024-01-11T08:30:01;50.83;;;31.60;;
55312;SDS011;46892;45.668;11.756;2024-01-11T08:32:29;48.50;;;31.77;;
55312;SDS011;46892;45.668;11.756;2024-01-11T08:34:56;50.07;;;30.97;;
55312;SDS011;46892;45.668;11.756;2024-01-11T08:37:22;50.03;;;31.07;;
55312;SDS011;46892;45.668;11.756;2024-01-11T08:39:48;48.30;;;29.60;;
55312;SDS011;46892;45.668;11.756;2024-01-11T08:42:14;51.87;;;32.70;;
55312;SDS011;46892;45.668;11.756;2024-01-11T08:44:42;50.07;;;30.60;;
55312;SDS011;46892;45.668;11.756;2024-01-11T08:47:08;47.27;;;29.23;;
55312;SDS011;46892;45.668;11.756;2024-01-11T08:49:38;41.63;;;26.00;;
55312;SDS011;46892;45.668;11.756;2024-01-11T08:52:05;35.80;;;23.75;;
55312;SDS011;46892;45.668;11.756;2024-01-11T08:54:31;38.10;;;23.27;;
55312;SDS011;46892;45.668;11.756;2024-01-11T08:57:00;42.20;;;25.60;;
55312;SDS011;46892;45.668;11.756;2024-01-11T08:59:26;39.67;;;24.80;;
55312;SDS011;46892;45.668;11.756;2024-01-11T09:01:52;38.17;;;23.73;;
55312;SDS011;46892;45.668;11.756;2024-01-11T10:11:53;24.37;;;14.23;;
55312;SDS011;46892;45.668;11.756;2024-01-11T10:14:20;28.57;;;14.60;;
55312;SDS011;46892;45.668;11.756;2024-01-11T10:16:45;23.90;;;14.67;;
55312;SDS011;46892;45.668;11.756;2024-01-11T10:19:13;22.67;;;13.77;;
55312;SDS011;46892;45.668;11.756;2024-01-11T10:21:41;22.70;;;15.57;;
55312;SDS011;46892;45.668;11.756;2024-01-11T10:24:07;23.57;;;14.87;;
55312;SDS011;46892;45.668;11.756;2024-01-11T10:26:33;22.20;;;14.83;;
55312;SDS011;46892;45.668;11.756;2024-01-11T10:29:01;20.90;;;13.60;;
55312;SDS011;46892;45.668;11.756;2024-01-11T10:31:28;24.30;;;14.63;;
55312;SDS011;46892;45.668;11.756;2024-01-11T10:33:54;22.57;;;14.73;;
55312;SDS011;46892;45.668;11.756;2024-01-11T10:36:20;21.93;;;14.77;;
55312;SDS011;46892;45.668;11.756;2024-01-11T10:38:46;24.43;;;15.63;;
55312;SDS011;46892;45.668;11.756;2024-01-11T10:41:13;21.33;;;13.57;;
55312;SDS011;46892;45.668;11.756;2024-01-11T10:43:43;22.93;;;14.90;;
55312;SDS011;46892;45.668;11.756;2024-01-11T10:46:11;23.90;;;15.00;;
55312;SDS011;46892;45.668;11.756;2024-01-11T10:48:39;20.07;;;13.63;;
55312;SDS011;46892;45.668;11.756;2024-01-11T10:51:12;23.23;;;14.83;;
55312;SDS011;46892;45.668;11.756;2024-01-11T10:56:10;21.63;;;14.87;;
55312;SDS011;46892;45.668;11.756;2024-01-11T10:58:42;22.57;;;15.27;;
55312;SDS011;46892;45.668;11.756;2024-01-11T11:01:09;20.10;;;14.15;;
55312;SDS011;46892;45.668;11.756;2024-01-11T11:03:36;19.43;;;13.93;;
55312;SDS011;46892;45.668;11.756;2024-01-11T11:06:04;21.17;;;13.67;;
55312;SDS011;46892;45.668;11.756;2024-01-11T11:08:34;21.03;;;13.60;;
55312;SDS011;46892;45.668;11.756;2024-01-11T11:11:02;19.73;;;13.73;;
55312;SDS011;46892;45.668;11.756;2024-01-11T11:13:32;24.88;;;13.93;;
55312;SDS011;46892;45.668;11.756;2024-01-11T11:16:01;19.43;;;12.63;;
55312;SDS011;46892;45.668;11.756;2024-01-11T11:18:31;19.03;;;12.33;;
55312;SDS011;46892;45.668;11.756;2024-01-11T11:21:00;19.53;;;13.47;;
55312;SDS011;46892;45.668;11.756;2024-01-11T11:23:26;20.10;;;13.27;;
55312;SDS011;46892;45.668;11.756;2024-01-11T11:25:53;19.50;;;12.70;;
55312;SDS011;46892;45.668;11.756;2024-01-11T11:28:21;19.75;;;13.20;;
55312;SDS011;46892;45.668;11.756;2024-01-11T11:30:48;21.87;;;13.83;;
55312;SDS011;46892;45.668;11.756;2024-01-11T11:35:45;20.03;;;13.53;;
55312;SDS011;46892;45.668;11.756;2024-01-11T11:38:20;19.53;;;13.57;;
55312;SDS011;46892;45.668;11.756;2024-01-11T11:40:47;17.53;;;12.53;;
55312;SDS011;46892;45.668;11.756;2024-01-11T11:43:16;17.97;;;12.17;;
55312;SDS011;46892;45.668;11.756;2024-01-11T11:45:43;19.60;;;12.93;;
55312;SDS011;46892;45.668;11.756;2024-01-11T11:51:27;19.70;;;12.00;;
55312;SDS011;46892;45.668;11.756;2024-01-11T11:53:47;19.93;;;12.87;;
55312;SDS011;46892;45.668;11.756;2024-01-11T11:56:15;18.40;;;12.07;;
55312;SDS011;46892;45.668;11.756;2024-01-11T11:58:43;17.27;;;12.00;;
55312;SDS011;46892;45.668;11.756;2024-01-11T12:01:10;18.07;;;12.30;;
55312;SDS011;46892;45.668;11.756;2024-01-11T12:03:37;18.03;;;12.00;;
55312;SDS011;46892;45.668;11.756;2024-01-11T12:06:08;16.70;;;11.93;;
55312;SDS011;46892;45.668;11.756;2024-01-11T12:08:35;17.17;;;11.77;;
55312;SDS011;46892;45.668;11.756;2024-01-11T12:11:01;17.50;;;11.60;;
55312;SDS011;46892;45.668;11.756;2024-01-11T12:13:28;17.83;;;11.70;;
55312;SDS011;46892;45.668;11.756;2024-01-11T12:15:56;17.27;;;11.43;;
55312;SDS011;46892;45.668;11.756;2024-01-11T12:18:22;16.57;;;11.33;;
55312;SDS011;46892;45.668;11.756;2024-01-11T12:20:48;19.20;;;12.03;;
55312;SDS011;46892;45.668;11.756;2024-01-11T12:23:14;21.73;;;13.43;;
55312;SDS011;46892;45.668;11.756;2024-01-11T12:25:40;18.23;;;12.50;;
55312;SDS011;46892;45.668;11.756;2024-01-11T12:28:07;19.37;;;11.10;;
55312;SDS011;46892;45.668;11.756;2024-01-11T12:30:33;16.57;;;10.87;;
55312;SDS011;46892;45.668;11.756;2024-01-11T12:32:59;16.47;;;11.17;;
55312;SDS011;46892;45.668;11.756;2024-01-11T12:35:29;16.30;;;11.10;;
55312;SDS011;46892;45.668;11.756;2024-01-11T12:37:55;16.97;;;11.43;;
55312;SDS011;46892;45.668;11.756;2024-01-11T12:40:24;17.93;;;12.17;;
55312;SDS011;46892;45.668;11.756;2024-01-11T12:42:52;19.07;;;12.63;;
55312;SDS011;46892;45.668;11.756;2024-01-11T12:45:21;18.13;;;12.10;;
55312;SDS011;46892;45.668;11.756;2024-01-11T12:47:48;20.20;;;12.70;;
55312;SDS011;46892;45.668;11.756;2024-01-11T12:50:14;20.07;;;12.43;;
55312;SDS011;46892;45.668;11.756;2024-01-11T12:52:39;18.63;;;12.40;;
55312;SDS011;46892;45.668;11.756;2024-01-11T12:55:07;17.57;;;12.47;;
55312;SDS011;46892;45.668;11.756;2024-01-11T12:57:43;18.57;;;12.27;;
55312;SDS011;46892;45.668;11.756;2024-01-11T13:00:09;16.93;;;11.57;;
55312;SDS011;46892;45.668;11.756;2024-01-11T13:02:36;17.07;;;11.57;;
55312;SDS011;46892;45.668;11.756;2024-01-11T13:05:03;17.70;;;12.50;;
55312;SDS011;46892;45.668;11.756;2024-01-11T13:07:30;16.80;;;11.73;;
55312;SDS011;46892;45.668;11.756;2024-01-11T13:09:56;17.90;;;11.87;;
55312;SDS011;46892;45.668;11.756;2024-01-11T13:12:21;19.97;;;12.83;;
55312;SDS011;46892;45.668;11.756;2024-01-11T13:14:47;17.07;;;12.43;;
55312;SDS011;46892;45.668;11.756;2024-01-11T13:17:13;18.63;;;12.43;;
55312;SDS011;46892;45.668;11.756;2024-01-11T13:19:39;16.63;;;10.97;;
55312;SDS011;46892;45.668;11.756;2024-01-11T13:22:05;18.07;;;12.40;;
55312;SDS011;46892;45.668;11.756;2024-01-11T13:24:31;16.00;;;11.07;;
55312;SDS011;46892;45.668;11.756;2024-01-11T13:26:56;15.90;;;11.03;;
55312;SDS011;46892;45.668;11.756;2024-01-11T13:29:22;17.47;;;11.57;;
55312;SDS011;46892;45.668;11.756;2024-01-11T13:31:48;17.50;;;11.17;;
55312;SDS011;46892;45.668;11.756;2024-01-11T13:34:14;15.90;;;10.60;;
55312;SDS011;46892;45.668;11.756;2024-01-11T13:36:39;24.50;;;12.17;;
55312;SDS011;46892;45.668;11.756;2024-01-11T13:39:05;18.87;;;11.57;;
55312;SDS011;46892;45.668;11.756;2024-01-11T13:41:33;21.10;;;13.40;;
55312;SDS011;46892;45.668;11.756;2024-01-11T13:43:59;23.93;;;15.00;;
55312;SDS011;46892;45.668;11.756;2024-01-11T13:46:25;24.80;;;15.47;;
55312;SDS011;46892;45.668;11.756;2024-01-11T13:48:51;18.70;;;12.60;;
55312;SDS011;46892;45.668;11.756;2024-01-11T13:51:18;27.17;;;13.80;;
55312;SDS011;46892;45.668;11.756;2024-01-11T13:53:43;19.87;;;13.10;;
55312;SDS011;46892;45.668;11.756;2024-01-11T13:56:09;19.60;;;12.23;;
55312;SDS011;46892;45.668;11.756;2024-01-11T13:58:35;22.83;;;12.60;;
55312;SDS011;46892;45.668;11.756;2024-01-11T14:01:01;19.87;;;12.57;;
55312;SDS011;46892;45.668;11.756;2024-01-11T14:03:27;17.53;;;11.60;;
55312;SDS011;46892;45.668;11.756;2024-01-11T14:05:53;21.53;;;12.60;;
55312;SDS011;46892;45.668;11.756;2024-01-11T14:08:19;19.47;;;11.87;;
55312;SDS011;46892;45.668;11.756;2024-01-11T14:10:45;19.37;;;12.47;;
55312;SDS011;46892;45.668;11.756;2024-01-11T14:13:10;18.93;;;12.60;;
55312;SDS011;46892;45.668;11.756;2024-01-11T14:15:36;21.43;;;13.20;;
55312;SDS011;46892;45.668;11.756;2024-01-11T14:18:02;20.87;;;13.77;;
55312;SDS011;46892;45.668;11.756;2024-01-11T14:20:28;27.10;;;14.73;;
55312;SDS011;46892;45.668;11.756;2024-01-11T14:22:55;22.37;;;13.57;;
55312;SDS011;46892;45.668;11.756;2024-01-11T14:25:23;19.50;;;13.10;;
55312;SDS011;46892;45.668;11.756;2024-01-11T14:27:52;21.35;;;12.32;;
55312;SDS011;46892;45.668;11.756;2024-01-11T14:30:18;18.60;;;11.43;;
55312;SDS011;46892;45.668;11.756;2024-01-11T14:32:44;17.03;;;11.43;;
55312;SDS011;46892;45.668;11.756;2024-01-11T14:35:10;19.80;;;12.67;;
55312;SDS011;46892;45.668;11.756;2024-01-11T14:37:37;17.63;;;11.33;;
55312;SDS011;46892;45.668;11.756;2024-01-11T14:40:07;18.43;;;10.90;;
55312;SDS011;46892;45.668;11.756;2024-01-11T14:42:36;19.30;;;10.90;;
55312;SDS011;46892;45.668;11.756;2024-01-11T14:45:03;15.60;;;11.17;;
55312;SDS011;46892;45.668;11.756;2024-01-11T14:47:29;15.20;;;10.83;;
55312;SDS011;46892;45.668;11.756;2024-01-11T14:49:56;21.47;;;12.10;;
55312;SDS011;46892;45.668;11.756;2024-01-11T14:52:23;19.70;;;11.67;;
55312;SDS011;46892;45.668;11.756;2024-01-11T14:54:49;16.97;;;11.43;;
55312;SDS011;46892;45.668;11.756;2024-01-11T14:57:15;16.97;;;12.00;;
55312;SDS011;46892;45.668;11.756;2024-01-11T14:59:42;18.20;;;11.80;;
55312;SDS011;46892;45.668;11.756;2024-01-11T15:02:08;21.60;;;13.00;;
55312;SDS011;46892;45.668;11.756;2024-01-11T15:04:34;18.10;;;11.17;;
55312;SDS011;46892;45.668;11.756;2024-01-11T15:07:00;18.00;;;11.07;;
55312;SDS011;46892;45.668;11.756;2024-01-11T15:09:26;17.50;;;11.73;;
55312;SDS011;46892;45.668;11.756;2024-01-11T15:11:52;17.63;;;11.30;;
55312;SDS011;46892;45.668;11.756;2024-01-11T15:14:18;17.83;;;11.07;;
55312;SDS011;46892;45.668;11.756;2024-01-11T15:16:44;16.20;;;10.53;;
55312;SDS011;46892;45.668;11.756;2024-01-11T15:19:11;16.13;;;10.17;;